Time,TemperatureF,DewpointF,PressureIn,WindDirection,WindDirectionDegrees,WindSpeedMPH,WindSpeedGustMPH,Humidity,HourlyPrecipIn,Conditions,Clouds,dailyrainin,SolarRadiationWatts/m^2,SoftwareType,DateUTC
2015-02-28 00:04:00,34.5,30.6,29.59,West,261,0.0,0.0,85,0.00,,,0.00,0.0,meteohub,2015-02-28 08:04:00,
2015-02-28 00:09:00,34.5,30.6,29.60,West,261,0.0,0.0,85,0.00,,,0.00,0.0,meteohub,2015-02-28 08:09:00,
2015-02-28 00:14:00,34.5,30.6,29.60,West,261,0.0,5.0,85,0.00,,,0.00,0.0,meteohub,2015-02-28 08:14:00,
2015-02-28 00:19:00,34.5,30.6,29.60,West,261,3.0,5.0,85,0.00,,,0.00,0.0,meteohub,2015-02-28 08:19:00,
2015-02-28 00:24:00,34.5,30.6,29.59,West,261,3.0,5.0,85,0.00,,,0.00,0.0,meteohub,2015-02-28 08:24:00,
2015-02-28 00:29:00,34.5,30.6,29.59,West,261,0.0,3.0,85,0.00,,,0.00,0.0,meteohub,2015-02-28 08:29:00,
2015-02-28 00:34:00,34.7,30.7,29.59,West,261,0.0,5.0,85,0.00,,,0.00,0.0,meteohub,2015-02-28 08:34:00,
2015-02-28 00:39:00,34.9,30.9,29.59,West,261,0.0,5.0,85,0.00,,,0.00,0.0,meteohub,2015-02-28 08:39:00,
2015-02-28 00:44:00,34.9,30.9,29.59,West,261,0.0,0.0,85,0.00,,,0.00,0.0,meteohub,2015-02-28 08:44:00,
2015-02-28 00:50:00,34.9,31.1,29.60,West,261,0.0,0.0,86,0.00,,,0.00,0.0,meteohub,2015-02-28 08:50:00,
2015-02-28 00:55:00,34.5,30.7,29.60,West,261,0.0,0.0,86,0.00,,,0.00,0.0,meteohub,2015-02-28 08:55:00,
2015-02-28 01:00:00,34.2,30.7,29.60,West,261,3.0,0.0,87,0.00,,,0.00,0.0,meteohub,2015-02-28 09:00:00,
2015-02-28 01:05:00,34.0,30.7,29.60,West,261,0.0,3.0,88,0.00,,,0.00,0.0,meteohub,2015-02-28 09:05:00,
2015-02-28 01:10:00,33.8,30.6,29.60,West,261,0.0,3.0,88,0.00,,,0.00,0.0,meteohub,2015-02-28 09:10:00,
2015-02-28 01:15:00,33.4,30.6,29.60,West,261,3.0,3.0,89,0.00,,,0.00,0.0,meteohub,2015-02-28 09:15:00,
2015-02-28 01:20:00,33.3,30.6,29.60,West,261,5.0,5.0,90,0.00,,,0.00,0.0,meteohub,2015-02-28 09:20:00,
2015-02-28 01:25:00,33.3,30.9,29.60,West,261,5.0,5.0,91,0.00,,,0.00,0.0,meteohub,2015-02-28 09:25:00,
2015-02-28 01:30:00,33.1,30.7,29.60,West,261,3.0,6.0,91,0.00,,,0.00,0.0,meteohub,2015-02-28 09:30:00,
2015-02-28 01:35:00,33.1,30.7,29.60,West,261,0.0,6.0,91,0.00,,,0.00,0.0,meteohub,2015-02-28 09:35:00,
2015-02-28 01:40:00,33.1,30.7,29.60,West,261,0.0,6.0,91,0.00,,,0.00,0.0,meteohub,2015-02-28 09:40:00,
2015-02-28 01:45:00,33.1,31.1,29.60,West,261,0.0,6.0,92,0.00,,,0.00,0.0,meteohub,2015-02-28 09:45:00,
2015-02-28 01:50:00,33.1,31.1,29.59,West,261,0.0,5.0,92,0.00,,,0.00,0.0,meteohub,2015-02-28 09:50:00,
2015-02-28 01:55:00,33.1,31.1,29.59,West,261,0.0,5.0,92,0.00,,,0.00,0.0,meteohub,2015-02-28 09:55:00,
2015-02-28 02:00:00,33.1,31.1,29.60,West,261,0.0,3.0,92,0.00,,,0.00,0.0,meteohub,2015-02-28 10:00:00,
2015-02-28 02:05:00,33.1,31.1,29.59,West,261,0.0,0.0,92,0.00,,,0.00,0.0,meteohub,2015-02-28 10:05:00,
2015-02-28 02:10:00,32.9,30.9,29.60,West,261,0.0,0.0,92,0.00,,,0.00,0.0,meteohub,2015-02-28 10:10:00,
2015-02-28 02:15:00,32.7,30.7,29.60,West,261,0.0,0.0,92,0.00,,,0.00,0.0,meteohub,2015-02-28 10:15:00,
2015-02-28 02:20:00,32.7,30.9,29.60,West,261,0.0,0.0,93,0.00,,,0.00,0.0,meteohub,2015-02-28 10:20:00,
2015-02-28 02:25:00,32.7,30.9,29.60,West,261,0.0,0.0,93,0.00,,,0.00,0.0,meteohub,2015-02-28 10:25:00,
2015-02-28 02:30:00,32.7,30.9,29.59,West,261,0.0,0.0,93,0.00,,,0.00,0.0,meteohub,2015-02-28 10:30:00,
2015-02-28 02:35:00,32.7,30.9,29.59,West,261,0.0,0.0,93,0.00,,,0.00,0.0,meteohub,2015-02-28 10:35:00,
2015-02-28 02:40:00,32.7,30.9,29.59,West,261,0.0,0.0,93,0.00,,,0.00,0.0,meteohub,2015-02-28 10:40:00,
2015-02-28 02:45:00,32.7,30.9,29.59,West,261,0.0,0.0,93,0.00,,,0.00,0.0,meteohub,2015-02-28 10:45:00,
2015-02-28 02:50:00,32.7,30.9,29.59,West,261,0.0,0.0,93,0.00,,,0.00,0.0,meteohub,2015-02-28 10:50:00,
2015-02-28 02:55:00,32.7,30.9,29.59,West,261,0.0,0.0,93,0.00,,,0.00,0.0,meteohub,2015-02-28 10:55:00,
2015-02-28 03:00:00,32.5,30.7,29.59,West,261,0.0,0.0,93,0.00,,,0.00,0.0,meteohub,2015-02-28 11:00:00,
2015-02-28 03:05:00,32.5,30.9,29.59,West,261,0.0,0.0,94,0.00,,,0.00,0.0,meteohub,2015-02-28 11:05:00,
2015-02-28 03:11:00,32.5,30.9,29.59,West,261,0.0,0.0,94,0.00,,,0.00,0.0,meteohub,2015-02-28 11:11:00,
2015-02-28 03:16:00,32.5,30.9,29.58,West,261,0.0,0.0,94,0.00,,,0.00,0.0,meteohub,2015-02-28 11:16:00,
2015-02-28 03:21:00,32.4,30.7,29.59,West,261,0.0,0.0,94,0.00,,,0.00,0.0,meteohub,2015-02-28 11:21:00,
2015-02-28 03:26:00,32.4,30.7,29.59,West,261,0.0,0.0,94,0.00,,,0.00,0.0,meteohub,2015-02-28 11:26:00,
2015-02-28 03:31:00,32.4,30.7,29.58,West,261,0.0,0.0,94,0.00,,,0.00,0.0,meteohub,2015-02-28 11:31:00,
2015-02-28 03:36:00,32.4,30.7,29.59,West,261,0.0,0.0,94,0.00,,,0.00,0.0,meteohub,2015-02-28 11:36:00,
2015-02-28 03:41:00,32.4,30.7,29.58,West,261,0.0,0.0,94,0.00,,,0.00,0.0,meteohub,2015-02-28 11:41:00,
2015-02-28 03:46:00,32.2,30.6,29.58,West,261,0.0,0.0,94,0.00,,,0.00,0.0,meteohub,2015-02-28 11:46:00,
2015-02-28 03:51:00,32.4,30.7,29.58,West,261,0.0,0.0,94,0.00,,,0.00,0.0,meteohub,2015-02-28 11:51:00,
2015-02-28 03:56:00,32.2,30.6,29.59,West,261,0.0,0.0,94,0.00,,,0.00,0.0,meteohub,2015-02-28 11:56:00,
2015-02-28 04:01:00,32.2,30.6,29.59,West,261,0.0,0.0,94,0.00,,,0.00,0.0,meteohub,2015-02-28 12:01:00,
2015-02-28 04:06:00,32.2,30.6,29.59,West,261,0.0,0.0,94,0.00,,,0.00,0.0,meteohub,2015-02-28 12:06:00,
2015-02-28 04:11:00,32.2,30.6,29.59,West,261,0.0,0.0,94,0.00,,,0.00,0.0,meteohub,2015-02-28 12:11:00,
2015-02-28 04:16:00,32.2,30.6,29.59,West,261,0.0,0.0,94,0.00,,,0.00,0.0,meteohub,2015-02-28 12:16:00,
2015-02-28 04:21:00,32.2,30.6,29.60,West,261,0.0,0.0,94,0.00,,,0.00,0.0,meteohub,2015-02-28 12:21:00,
2015-02-28 04:26:00,32.4,30.7,29.60,West,261,0.0,0.0,94,0.00,,,0.00,0.0,meteohub,2015-02-28 12:26:00,
2015-02-28 04:31:00,32.4,30.7,29.60,West,261,0.0,0.0,94,0.00,,,0.00,0.0,meteohub,2015-02-28 12:31:00,
2015-02-28 04:36:00,32.4,30.7,29.60,West,261,0.0,0.0,94,0.00,,,0.00,0.0,meteohub,2015-02-28 12:36:00,
2015-02-28 04:41:00,32.4,30.7,29.60,West,261,0.0,0.0,94,0.00,,,0.00,0.0,meteohub,2015-02-28 12:41:00,
2015-02-28 04:46:00,32.4,30.7,29.60,West,261,0.0,0.0,94,0.00,,,0.00,0.0,meteohub,2015-02-28 12:46:00,
2015-02-28 04:51:00,32.4,30.7,29.60,West,261,0.0,0.0,94,0.00,,,0.00,0.0,meteohub,2015-02-28 12:51:00,
2015-02-28 04:56:00,32.4,30.7,29.60,West,261,0.0,0.0,94,0.00,,,0.00,0.0,meteohub,2015-02-28 12:56:00,
2015-02-28 05:01:00,32.2,30.6,29.60,West,261,0.0,0.0,94,0.00,,,0.00,0.0,meteohub,2015-02-28 13:01:00,
2015-02-28 05:06:00,31.8,30.4,29.60,West,261,0.0,0.0,94,0.00,,,0.00,0.0,meteohub,2015-02-28 13:06:00,
2015-02-28 05:11:00,31.8,30.4,29.60,West,261,0.0,0.0,94,0.00,,,0.00,0.0,meteohub,2015-02-28 13:11:00,
2015-02-28 05:16:00,32.0,30.7,29.60,West,261,0.0,0.0,95,0.00,,,0.00,0.0,meteohub,2015-02-28 13:16:00,
2015-02-28 05:21:00,32.0,30.7,29.60,West,261,0.0,0.0,95,0.00,,,0.00,0.0,meteohub,2015-02-28 13:21:00,
2015-02-28 05:26:00,32.2,30.9,29.60,West,261,0.0,0.0,95,0.00,,,0.00,0.0,meteohub,2015-02-28 13:26:00,
2015-02-28 05:31:00,32.0,30.7,29.60,West,261,0.0,0.0,95,0.00,,,0.00,0.0,meteohub,2015-02-28 13:31:00,
2015-02-28 05:36:00,32.2,30.9,29.60,West,261,0.0,0.0,95,0.00,,,0.00,0.0,meteohub,2015-02-28 13:36:00,
2015-02-28 05:41:00,32.0,30.7,29.61,West,261,0.0,0.0,95,0.00,,,0.00,0.0,meteohub,2015-02-28 13:41:00,
2015-02-28 05:46:00,32.0,30.7,29.61,West,261,0.0,0.0,95,0.00,,,0.00,0.0,meteohub,2015-02-28 13:46:00,
2015-02-28 05:51:00,32.0,30.7,29.61,West,261,0.0,0.0,95,0.00,,,0.00,0.0,meteohub,2015-02-28 13:51:00,
2015-02-28 05:56:00,32.2,30.9,29.61,West,261,0.0,0.0,95,0.00,,,0.00,0.0,meteohub,2015-02-28 13:56:00,
2015-02-28 06:01:00,32.0,30.7,29.61,West,261,0.0,0.0,95,0.00,,,0.00,0.0,meteohub,2015-02-28 14:01:00,
2015-02-28 06:06:00,31.8,30.6,29.61,West,261,0.0,0.0,95,0.00,,,0.00,0.0,meteohub,2015-02-28 14:06:00,
2015-02-28 06:11:00,32.0,30.7,29.62,West,261,0.0,0.0,95,0.00,,,0.00,0.0,meteohub,2015-02-28 14:11:00,
2015-02-28 06:16:00,32.2,30.9,29.62,West,261,0.0,0.0,95,0.00,,,0.00,0.0,meteohub,2015-02-28 14:16:00,
2015-02-28 06:21:00,32.2,30.9,29.62,West,261,0.0,0.0,95,0.00,,,0.00,0.0,meteohub,2015-02-28 14:21:00,
2015-02-28 06:26:00,32.0,30.7,29.62,West,261,0.0,0.0,95,0.00,,,0.00,0.0,meteohub,2015-02-28 14:26:00,
2015-02-28 06:31:00,32.2,30.9,29.62,West,261,0.0,0.0,95,0.00,,,0.00,0.0,meteohub,2015-02-28 14:31:00,
2015-02-28 06:36:00,32.0,30.7,29.62,West,261,0.0,0.0,95,0.00,,,0.00,0.0,meteohub,2015-02-28 14:36:00,
2015-02-28 06:41:00,32.2,30.9,29.62,West,261,0.0,0.0,95,0.00,,,0.00,0.0,meteohub,2015-02-28 14:41:00,
2015-02-28 06:46:00,32.2,30.9,29.62,West,261,0.0,0.0,95,0.01,,,0.02,0.0,meteohub,2015-02-28 14:46:00,
2015-02-28 06:51:00,32.2,30.9,29.63,West,261,0.0,0.0,95,0.02,,,0.04,0.0,meteohub,2015-02-28 14:51:00,
2015-02-28 06:56:00,32.2,30.9,29.63,West,261,0.0,0.0,95,0.05,,,0.04,0.0,meteohub,2015-02-28 14:56:00,
2015-02-28 07:01:00,32.2,30.9,29.63,West,261,0.0,0.0,95,0.05,,,0.06,0.0,meteohub,2015-02-28 15:01:00,
2015-02-28 07:06:00,32.4,31.1,29.63,West,261,0.0,0.0,95,0.06,,,0.06,0.0,meteohub,2015-02-28 15:06:00,
2015-02-28 07:12:00,32.4,31.1,29.64,West,261,0.0,0.0,95,0.06,,,0.07,0.0,meteohub,2015-02-28 15:12:00,
2015-02-28 07:16:00,32.4,31.1,29.64,West,261,0.0,0.0,95,0.07,,,0.07,5.0,meteohub,2015-02-28 15:16:00,
2015-02-28 07:21:00,32.4,31.1,29.64,West,261,0.0,0.0,95,0.07,,,0.08,7.0,meteohub,2015-02-28 15:21:00,
2015-02-28 07:27:00,32.4,31.1,29.64,West,261,0.0,0.0,95,0.09,,,0.09,7.0,meteohub,2015-02-28 15:27:00,
2015-02-28 07:32:00,32.4,31.1,29.65,West,261,0.0,0.0,95,0.09,,,0.09,7.0,meteohub,2015-02-28 15:32:00,
2015-02-28 07:37:00,32.4,31.1,29.65,West,261,0.0,0.0,95,0.10,,,0.10,11.0,meteohub,2015-02-28 15:37:00,
2015-02-28 07:42:00,32.4,31.1,29.65,West,261,0.0,0.0,95,0.10,,,0.10,11.0,meteohub,2015-02-28 15:42:00,
2015-02-28 07:47:00,32.4,31.1,29.65,West,261,0.0,0.0,95,0.07,,,0.10,14.0,meteohub,2015-02-28 15:47:00,
2015-02-28 07:52:00,32.5,31.3,29.66,West,261,0.0,0.0,95,0.07,,,0.10,14.0,meteohub,2015-02-28 15:52:00,
2015-02-28 07:57:00,32.5,31.3,29.66,West,261,0.0,0.0,95,0.05,,,0.10,12.0,meteohub,2015-02-28 15:57:00,
2015-02-28 08:02:00,32.7,31.5,29.66,West,261,0.0,0.0,95,0.05,,,0.10,12.0,meteohub,2015-02-28 16:02:00,
2015-02-28 08:07:00,32.7,31.5,29.66,West,261,0.0,0.0,95,0.04,,,0.10,18.0,meteohub,2015-02-28 16:07:00,
2015-02-28 08:12:00,32.7,31.5,29.67,West,261,0.0,0.0,95,0.04,,,0.11,23.0,meteohub,2015-02-28 16:12:00,
2015-02-28 08:17:00,32.7,31.5,29.67,West,261,0.0,0.0,95,0.03,,,0.11,26.0,meteohub,2015-02-28 16:17:00,
2015-02-28 08:22:00,32.7,31.5,29.67,West,261,0.0,0.0,95,0.03,,,0.11,28.0,meteohub,2015-02-28 16:22:00,
2015-02-28 08:27:00,32.7,31.5,29.68,West,261,0.0,0.0,95,0.02,,,0.11,23.0,meteohub,2015-02-28 16:27:00,
2015-02-28 08:32:00,32.7,31.5,29.68,West,261,0.0,0.0,95,0.02,,,0.11,23.0,meteohub,2015-02-28 16:32:00,
2015-02-28 08:37:00,32.9,31.6,29.68,West,261,0.0,0.0,95,0.01,,,0.11,25.0,meteohub,2015-02-28 16:37:00,
2015-02-28 08:42:00,32.9,31.6,29.68,West,261,5.0,5.0,95,0.01,,,0.11,21.0,meteohub,2015-02-28 16:42:00,
2015-02-28 08:47:00,32.7,31.5,29.68,West,261,3.0,6.0,95,0.01,,,0.11,23.0,meteohub,2015-02-28 16:47:00,
2015-02-28 08:52:00,32.5,31.3,29.69,West,263,3.0,8.0,95,0.01,,,0.11,28.0,meteohub,2015-02-28 16:52:00,
2015-02-28 08:57:00,32.5,31.3,29.69,West,263,3.0,8.0,95,0.01,,,0.11,28.0,meteohub,2015-02-28 16:57:00,
2015-02-28 09:02:00,32.5,31.3,29.69,West,266,3.0,8.0,95,0.01,,,0.11,28.0,meteohub,2015-02-28 17:02:00,
2015-02-28 09:07:00,32.4,31.1,29.70,West,271,3.0,8.0,95,0.01,,,0.11,33.0,meteohub,2015-02-28 17:07:00,
2015-02-28 09:12:00,32.5,31.3,29.70,West,271,5.0,8.0,95,0.01,,,0.12,46.0,meteohub,2015-02-28 17:12:00,
2015-02-28 09:17:00,32.7,31.5,29.70,West,273,0.0,9.0,95,0.01,,,0.12,54.0,meteohub,2015-02-28 17:17:00,
2015-02-28 09:22:00,32.9,31.6,29.70,West,274,3.0,9.0,95,0.01,,,0.12,60.0,meteohub,2015-02-28 17:22:00,
2015-02-28 09:27:00,32.9,31.6,29.70,WNW,284,0.0,9.0,95,0.01,,,0.12,63.0,meteohub,2015-02-28 17:27:00,
2015-02-28 09:32:00,32.7,31.5,29.70,WNW,300,5.0,9.0,95,0.01,,,0.12,63.0,meteohub,2015-02-28 17:32:00,
2015-02-28 09:37:00,32.7,31.5,29.70,WNW,303,6.0,10.0,95,0.01,,,0.12,46.0,meteohub,2015-02-28 17:37:00,
2015-02-28 09:42:00,32.5,31.3,29.70,NW,304,0.0,10.0,95,0.01,,,0.12,39.0,meteohub,2015-02-28 17:42:00,
2015-02-28 09:47:00,32.5,31.3,29.71,NW,309,5.0,10.0,95,0.02,,,0.12,35.0,meteohub,2015-02-28 17:47:00,
2015-02-28 09:52:00,32.5,31.3,29.71,NW,309,0.0,10.0,95,0.02,,,0.13,33.0,meteohub,2015-02-28 17:52:00,
2015-02-28 09:57:00,32.3,31.0,29.70,NW,310,0.0,5.0,95,0.03,,,0.14,39,weatherlink.com 1.10,2015-02-28 17:57:00,
2015-02-28 10:02:00,32.4,31.1,29.71,NW,310,0.0,10.0,95,0.03,,,0.14,42.0,meteohub,2015-02-28 18:02:00,
2015-02-28 10:07:00,32.5,31.3,29.72,NW,310,3.0,9.0,95,0.02,,,0.14,47.0,meteohub,2015-02-28 18:07:00,
2015-02-28 10:12:00,32.7,31.5,29.72,NW,310,0.0,9.0,95,0.02,,,0.14,54.0,meteohub,2015-02-28 18:12:00,
2015-02-28 10:17:00,33.1,31.8,29.72,NW,310,5.0,5.0,95,0.02,,,0.14,62.0,meteohub,2015-02-28 18:17:00,
2015-02-28 10:22:00,33.3,32.2,29.73,NW,310,3.0,5.0,96,0.02,,,0.14,86.0,meteohub,2015-02-28 18:22:00,
2015-02-28 10:27:00,33.4,32.4,29.73,NW,310,0.0,6.0,96,0.02,,,0.14,100.0,meteohub,2015-02-28 18:27:00,
2015-02-28 10:32:00,33.6,32.5,29.73,NW,310,0.0,6.0,96,0.02,,,0.14,111.0,meteohub,2015-02-28 18:32:00,
2015-02-28 10:37:00,33.4,32.4,29.73,NW,310,0.0,6.0,96,0.02,,,0.14,113.0,meteohub,2015-02-28 18:37:00,
2015-02-28 10:42:00,33.4,32.4,29.73,NW,310,0.0,6.0,96,0.02,,,0.14,134.0,meteohub,2015-02-28 18:42:00,
2015-02-28 10:48:00,33.8,32.7,29.73,NW,310,0.0,6.0,96,0.01,,,0.14,146.0,meteohub,2015-02-28 18:48:00,
2015-02-28 10:53:00,33.6,32.5,29.73,NW,310,0.0,6.0,96,0.02,,,0.15,197.0,meteohub,2015-02-28 18:53:00,
2015-02-28 10:58:00,33.8,32.5,29.74,NW,310,3.0,6.0,95,0.01,,,0.15,227.0,meteohub,2015-02-28 18:58:00,
2015-02-28 11:03:00,34.0,32.7,29.74,NW,310,5.0,6.0,95,0.01,,,0.15,265.0,meteohub,2015-02-28 19:03:00,
2015-02-28 11:08:00,34.0,32.7,29.74,NW,310,5.0,6.0,95,0.01,,,0.15,311.0,meteohub,2015-02-28 19:08:00,
2015-02-28 11:13:00,33.8,32.5,29.74,NW,315,5.0,8.0,95,0.01,,,0.15,330.0,meteohub,2015-02-28 19:13:00,
2015-02-28 11:18:00,34.0,32.7,29.74,NW,325,5.0,9.0,95,0.01,,,0.15,315.0,meteohub,2015-02-28 19:18:00,
2015-02-28 11:23:00,34.2,32.9,29.74,NNW,329,0.0,9.0,95,0.01,,,0.15,274.0,meteohub,2015-02-28 19:23:00,
2015-02-28 11:28:00,34.3,33.1,29.74,NNW,329,3.0,11.0,95,0.01,,,0.15,257.0,meteohub,2015-02-28 19:28:00,
2015-02-28 11:33:00,34.2,32.9,29.75,NNW,340,7.0,11.0,95,0.01,,,0.15,250.0,meteohub,2015-02-28 19:33:00,
2015-02-28 11:38:00,34.2,32.9,29.75,NNW,343,3.0,8.0,95,0.01,,,0.15,264.0,meteohub,2015-02-28 19:38:00,
2015-02-28 11:43:00,34.2,32.9,29.75,NNW,346,0.0,8.0,95,0.01,,,0.15,258.0,meteohub,2015-02-28 19:43:00,
2015-02-28 11:48:00,34.2,32.9,29.75,NNW,346,0.0,8.0,95,0.00,,,0.15,274.0,meteohub,2015-02-28 19:48:00,
2015-02-28 11:53:00,34.2,32.9,29.75,North,351,3.0,7.0,95,0.01,,,0.16,248.0,meteohub,2015-02-28 19:53:00,
2015-02-28 11:58:00,34.2,32.9,29.75,North,355,7.0,8.0,95,0.01,,,0.16,207.0,meteohub,2015-02-28 19:58:00,
2015-02-28 12:03:00,34.0,32.7,29.75,North,0,5.0,8.0,95,0.01,,,0.16,206.0,meteohub,2015-02-28 20:03:00,
2015-02-28 12:08:00,34.0,32.7,29.75,North,0,3.0,8.0,95,0.01,,,0.16,223.0,meteohub,2015-02-28 20:08:00,
2015-02-28 12:13:00,33.6,32.4,29.75,North,9,5.0,8.0,95,0.01,,,0.16,218.0,meteohub,2015-02-28 20:13:00,
2015-02-28 12:18:00,33.8,32.5,29.75,North,5,0.0,8.0,95,0.01,,,0.16,229.0,meteohub,2015-02-28 20:18:00,
2015-02-28 12:23:00,34.0,32.7,29.75,North,5,5.0,8.0,95,0.01,,,0.16,274.0,meteohub,2015-02-28 20:23:00,
2015-02-28 12:28:00,34.2,32.9,29.75,North,5,0.0,8.0,95,0.01,,,0.16,258.0,meteohub,2015-02-28 20:28:00,
2015-02-28 12:33:00,34.0,32.7,29.75,North,9,7.0,8.0,95,0.01,,,0.16,248.0,meteohub,2015-02-28 20:33:00,
2015-02-28 12:38:00,34.0,32.7,29.75,North,9,5.0,8.0,95,0.01,,,0.16,223.0,meteohub,2015-02-28 20:38:00,
2015-02-28 12:43:00,34.0,32.7,29.75,North,11,3.0,8.0,95,0.01,,,0.16,214.0,meteohub,2015-02-28 20:43:00,
2015-02-28 12:48:00,34.0,32.7,29.75,North,11,3.0,8.0,95,0.02,,,0.16,246.0,meteohub,2015-02-28 20:48:00,
2015-02-28 12:53:00,34.0,32.7,29.75,North,11,0.0,8.0,95,0.01,,,0.17,216.0,meteohub,2015-02-28 20:53:00,
2015-02-28 12:58:00,34.2,33.1,29.75,North,11,3.0,8.0,96,0.01,,,0.17,246.0,meteohub,2015-02-28 20:58:00,
2015-02-28 13:03:00,34.3,33.1,29.75,NNE,13,3.0,8.0,95,0.01,,,0.17,332.0,meteohub,2015-02-28 21:03:00,
2015-02-28 13:08:00,34.9,33.8,29.75,NNE,14,5.0,11.0,96,0.01,,,0.17,287.0,meteohub,2015-02-28 21:08:00,
2015-02-28 13:13:00,34.7,33.4,29.75,NNW,339,0.0,11.0,95,0.01,,,0.17,315.0,meteohub,2015-02-28 21:13:00,
2015-02-28 13:18:00,34.3,33.1,29.76,NW,326,11.0,13.0,95,0.01,,,0.17,315.0,meteohub,2015-02-28 21:18:00,
2015-02-28 13:23:00,34.5,33.3,29.76,NW,326,5.0,13.0,95,0.01,,,0.17,343.0,meteohub,2015-02-28 21:23:00,
2015-02-28 13:28:00,34.7,33.4,29.76,NNW,328,7.0,13.0,95,0.01,,,0.17,299.0,meteohub,2015-02-28 21:28:00,
2015-02-28 13:33:00,35.1,33.8,29.76,NNW,328,7.0,13.0,95,0.01,,,0.17,264.0,meteohub,2015-02-28 21:33:00,
2015-02-28 13:38:00,35.1,33.8,29.76,NNW,338,7.0,13.0,95,0.01,,,0.17,260.0,meteohub,2015-02-28 21:38:00,
2015-02-28 13:43:00,34.9,33.6,29.76,NNW,336,7.0,11.0,95,0.01,,,0.17,248.0,meteohub,2015-02-28 21:43:00,
2015-02-28 13:48:00,35.1,33.8,29.76,NNW,331,7.0,11.0,95,0.00,,,0.17,265.0,meteohub,2015-02-28 21:48:00,
2015-02-28 13:53:00,35.2,34.0,29.77,NNW,333,7.0,11.0,95,0.00,,,0.17,272.0,meteohub,2015-02-28 21:53:00,
2015-02-28 13:58:00,35.4,34.2,29.77,NNW,336,8.0,11.0,95,0.00,,,0.17,295.0,meteohub,2015-02-28 21:58:00,
2015-02-28 14:03:00,36.0,34.7,29.77,NNW,335,3.0,9.0,95,0.00,,,0.17,339.0,meteohub,2015-02-28 22:03:00,
2015-02-28 14:08:00,35.8,34.2,29.78,North,350,11.0,11.0,94,0.00,,,0.17,350.0,meteohub,2015-02-28 22:08:00,
2015-02-28 14:13:00,35.8,34.2,29.78,NNW,336,7.0,13.0,94,0.00,,,0.17,378.0,meteohub,2015-02-28 22:13:00,
2015-02-28 14:19:00,36.0,34.3,29.78,NNW,331,5.0,13.0,94,0.00,,,0.17,295.0,meteohub,2015-02-28 22:19:00,
2015-02-28 14:24:00,36.0,34.3,29.78,NNW,331,3.0,13.0,94,0.00,,,0.17,285.0,meteohub,2015-02-28 22:24:00,
2015-02-28 14:29:00,36.7,35.1,29.78,NNW,331,0.0,13.0,94,0.00,,,0.17,251.0,meteohub,2015-02-28 22:29:00,
2015-02-28 14:34:00,36.3,34.5,29.78,NNW,330,5.0,13.0,93,0.00,,,0.17,264.0,meteohub,2015-02-28 22:34:00,
2015-02-28 14:39:00,36.0,33.8,29.79,NNW,329,13.0,15.0,92,0.00,,,0.17,290.0,meteohub,2015-02-28 22:39:00,
2015-02-28 14:44:00,35.6,33.4,29.79,NW,325,11.0,15.0,92,0.00,,,0.17,220.0,meteohub,2015-02-28 22:44:00,
2015-02-28 14:49:00,35.6,33.4,29.79,NNW,332,3.0,15.0,92,0.00,,,0.17,262.0,meteohub,2015-02-28 22:49:00,
2015-02-28 14:54:00,36.0,33.8,29.79,NW,325,5.0,15.0,92,0.00,,,0.17,248.0,meteohub,2015-02-28 22:54:00,
2015-02-28 14:59:00,36.0,33.6,29.80,NNW,336,7.0,15.0,91,0.00,,,0.17,264.0,meteohub,2015-02-28 22:59:00,
2015-02-28 15:04:00,35.8,33.4,29.80,NNW,327,11.0,13.0,91,0.00,,,0.17,244.0,meteohub,2015-02-28 23:04:00,
2015-02-28 15:09:00,35.6,33.3,29.80,NNW,344,8.0,13.0,91,0.00,,,0.17,239.0,meteohub,2015-02-28 23:09:00,
2015-02-28 15:14:00,35.8,33.4,29.81,NW,318,9.0,13.0,91,0.00,,,0.17,236.0,meteohub,2015-02-28 23:14:00,
2015-02-28 15:19:00,35.4,32.7,29.81,NNW,327,11.0,13.0,90,0.00,,,0.17,153.0,meteohub,2015-02-28 23:19:00,
2015-02-28 15:24:00,35.2,32.9,29.81,NNW,331,0.0,13.0,91,0.00,,,0.17,172.0,meteohub,2015-02-28 23:24:00,
2015-02-28 15:29:00,35.4,33.1,29.81,NNW,327,7.0,13.0,91,0.00,,,0.17,172.0,meteohub,2015-02-28 23:29:00,
2015-02-28 15:34:00,35.4,33.1,29.81,NW,318,3.0,13.0,91,0.00,,,0.17,162.0,meteohub,2015-02-28 23:34:00,
2015-02-28 15:39:00,35.4,33.1,29.81,NW,323,5.0,11.0,91,0.00,,,0.17,158.0,meteohub,2015-02-28 23:39:00,
2015-02-28 15:44:00,35.4,33.1,29.81,NW,321,7.0,13.0,91,0.00,,,0.17,155.0,meteohub,2015-02-28 23:44:00,
2015-02-28 15:49:00,35.4,33.1,29.81,NW,323,5.0,13.0,91,0.00,,,0.17,153.0,meteohub,2015-02-28 23:49:00,
2015-02-28 15:54:00,35.4,32.7,29.82,NW,314,8.0,13.0,90,0.00,,,0.17,165.0,meteohub,2015-02-28 23:54:00,
2015-02-28 15:59:00,35.4,32.5,29.82,NW,323,5.0,11.0,89,0.00,,,0.17,200.0,meteohub,2015-02-28 23:59:00,
2015-02-28 16:04:00,36.0,33.3,29.81,NNW,328,9.0,11.0,90,0.00,,,0.17,197.0,meteohub,2015-03-01 00:04:00,
2015-02-28 16:09:00,36.0,33.1,29.82,NNW,327,11.0,11.0,89,0.00,,,0.17,130.0,meteohub,2015-03-01 00:09:00,
2015-02-28 16:14:00,35.4,32.0,29.82,NNW,329,3.0,13.0,87,0.00,,,0.17,84.0,meteohub,2015-03-01 00:14:00,
2015-02-28 16:19:00,35.2,32.4,29.82,NNW,332,5.0,13.0,89,0.00,,,0.17,95.0,meteohub,2015-03-01 00:19:00,
2015-02-28 16:24:00,35.2,32.5,29.83,NNW,332,0.0,13.0,90,0.00,,,0.17,81.0,meteohub,2015-03-01 00:24:00,
2015-02-28 16:30:00,35.4,32.7,29.83,NNW,332,3.0,13.0,90,0.00,,,0.17,49.0,meteohub,2015-03-01 00:30:00,
2015-02-28 16:35:00,35.1,32.4,29.83,NNW,333,3.0,8.0,90,0.00,,,0.17,58.0,meteohub,2015-03-01 00:35:00,
2015-02-28 16:40:00,34.9,32.5,29.83,NNW,333,0.0,9.0,91,0.00,,,0.17,60.0,meteohub,2015-03-01 00:40:00,
2015-02-28 16:45:00,34.5,32.2,29.84,NNW,334,7.0,9.0,91,0.00,,,0.17,53.0,meteohub,2015-03-01 00:45:00,
2015-02-28 16:50:00,34.5,32.4,29.83,NNW,334,0.0,9.0,92,0.00,,,0.17,44.0,meteohub,2015-03-01 00:50:00,
2015-02-28 16:55:00,34.3,32.2,29.83,NNW,333,5.0,9.0,92,0.01,,,0.18,37.0,meteohub,2015-03-01 00:55:00,
2015-02-28 17:00:00,34.3,32.5,29.84,NNW,333,0.0,9.0,93,0.01,,,0.18,35.0,meteohub,2015-03-01 01:00:00,
2015-02-28 17:05:00,34.3,32.5,29.84,NNW,333,0.0,9.0,93,0.01,,,0.18,32.0,meteohub,2015-03-01 01:05:00,
2015-02-28 17:10:00,34.3,32.5,29.84,NNW,333,3.0,8.0,93,0.01,,,0.18,23.0,meteohub,2015-03-01 01:10:00,
2015-02-28 17:15:00,34.3,32.5,29.84,NNW,333,0.0,5.0,93,0.01,,,0.18,18.0,meteohub,2015-03-01 01:15:00,
2015-02-28 17:20:00,34.0,32.2,29.84,NNW,333,0.0,5.0,93,0.01,,,0.18,11.0,meteohub,2015-03-01 01:20:00,
2015-02-28 17:25:00,33.8,32.0,29.85,NNW,333,0.0,7.0,93,0.01,,,0.18,11.0,meteohub,2015-03-01 01:25:00,
2015-02-28 17:30:00,33.6,31.8,29.85,NNW,333,0.0,7.0,93,0.01,,,0.18,11.0,meteohub,2015-03-01 01:30:00,
2015-02-28 17:35:00,33.4,31.6,29.85,NNW,333,0.0,7.0,93,0.01,,,0.18,9.0,meteohub,2015-03-01 01:35:00,
2015-02-28 17:40:00,33.6,32.0,29.86,NNW,333,0.0,7.0,94,0.01,,,0.18,5.0,meteohub,2015-03-01 01:40:00,
2015-02-28 17:45:00,33.6,31.8,29.85,NNW,333,0.0,7.0,93,0.01,,,0.18,0.0,meteohub,2015-03-01 01:45:00,
2015-02-28 17:50:00,33.4,31.6,29.86,NNW,333,3.0,7.0,93,0.01,,,0.18,0.0,meteohub,2015-03-01 01:50:00,
2015-02-28 17:55:00,33.6,32.0,29.86,NNW,333,0.0,3.0,94,0.00,,,0.18,0.0,meteohub,2015-03-01 01:55:00,
2015-02-28 18:00:00,33.6,32.0,29.85,NNW,333,0.0,5.0,94,0.00,,,0.18,0.0,meteohub,2015-03-01 02:00:00,
2015-02-28 18:05:00,33.4,31.8,29.86,NNW,333,0.0,5.0,94,0.00,,,0.18,0.0,meteohub,2015-03-01 02:05:00,
2015-02-28 18:10:00,33.6,32.0,29.86,NNW,333,0.0,5.0,94,0.00,,,0.18,0.0,meteohub,2015-03-01 02:10:00,
2015-02-28 18:15:00,33.6,32.0,29.86,NNW,333,0.0,3.0,94,0.00,,,0.18,0.0,meteohub,2015-03-01 02:15:00,
2015-02-28 18:20:00,33.4,31.8,29.87,NNW,333,0.0,3.0,94,0.00,,,0.18,0.0,meteohub,2015-03-01 02:20:00,
2015-02-28 18:25:00,33.4,31.8,29.87,NNW,333,0.0,0.0,94,0.00,,,0.18,0.0,meteohub,2015-03-01 02:25:00,
2015-02-28 18:30:00,33.4,31.8,29.87,NNW,333,0.0,0.0,94,0.00,,,0.18,0.0,meteohub,2015-03-01 02:30:00,
2015-02-28 18:35:00,33.4,31.8,29.87,NNW,333,0.0,0.0,94,0.00,,,0.18,0.0,meteohub,2015-03-01 02:35:00,
2015-02-28 18:40:00,33.4,31.8,29.87,NNW,333,0.0,0.0,94,0.00,,,0.18,0.0,meteohub,2015-03-01 02:40:00,
2015-02-28 18:45:00,33.4,31.8,29.88,NNW,333,0.0,0.0,94,0.00,,,0.18,0.0,meteohub,2015-03-01 02:45:00,
2015-02-28 18:50:00,33.4,31.8,29.88,NNW,333,0.0,0.0,94,0.00,,,0.18,0.0,meteohub,2015-03-01 02:50:00,
2015-02-28 18:55:00,33.4,31.8,29.88,NNW,333,0.0,0.0,94,0.00,,,0.18,0.0,meteohub,2015-03-01 02:55:00,
2015-02-28 19:00:00,33.4,31.8,29.88,NNW,333,0.0,0.0,94,0.00,,,0.18,0.0,meteohub,2015-03-01 03:00:00,
2015-02-28 19:05:00,33.3,31.6,29.88,NNW,333,0.0,3.0,94,0.00,,,0.18,0.0,meteohub,2015-03-01 03:05:00,
2015-02-28 19:10:00,33.3,32.0,29.88,NNW,333,0.0,3.0,95,0.00,,,0.18,0.0,meteohub,2015-03-01 03:10:00,
2015-02-28 19:15:00,33.3,32.0,29.89,NNW,333,0.0,3.0,95,0.00,,,0.18,0.0,meteohub,2015-03-01 03:15:00,
2015-02-28 19:20:00,33.1,31.8,29.89,NNW,333,0.0,3.0,95,0.00,,,0.18,0.0,meteohub,2015-03-01 03:20:00,
2015-02-28 19:25:00,33.1,31.8,29.90,NNW,333,0.0,3.0,95,0.00,,,0.18,0.0,meteohub,2015-03-01 03:25:00,
2015-02-28 19:30:00,33.1,31.8,29.90,NNW,333,3.0,3.0,95,0.00,,,0.18,0.0,meteohub,2015-03-01 03:30:00,
2015-02-28 19:36:00,32.9,31.6,29.90,NNW,333,0.0,3.0,95,0.00,,,0.18,0.0,meteohub,2015-03-01 03:36:00,
2015-02-28 19:41:00,32.7,31.5,29.90,NNW,333,0.0,5.0,95,0.00,,,0.18,0.0,meteohub,2015-03-01 03:41:00,
2015-02-28 19:46:00,32.7,31.5,29.91,NNW,333,0.0,5.0,95,0.00,,,0.18,0.0,meteohub,2015-03-01 03:46:00,
2015-02-28 19:51:00,32.7,31.5,29.91,NNW,333,3.0,5.0,95,0.00,,,0.18,0.0,meteohub,2015-03-01 03:51:00,
2015-02-28 19:56:00,32.7,31.5,29.91,NNW,333,0.0,5.0,95,0.00,,,0.18,0.0,meteohub,2015-03-01 03:56:00,
2015-02-28 20:01:00,32.7,31.5,29.91,NNW,333,0.0,5.0,95,0.00,,,0.18,0.0,meteohub,2015-03-01 04:01:00,
2015-02-28 20:06:00,32.7,31.5,29.91,NNW,333,3.0,5.0,95,0.00,,,0.18,0.0,meteohub,2015-03-01 04:06:00,
2015-02-28 20:11:00,33.1,31.8,29.91,NNW,333,3.0,5.0,95,0.00,,,0.18,0.0,meteohub,2015-03-01 04:11:00,
2015-02-28 20:16:00,33.1,31.8,29.92,NNW,333,3.0,3.0,95,0.00,,,0.18,0.0,meteohub,2015-03-01 04:16:00,
2015-02-28 20:21:00,33.1,31.8,29.92,NNW,333,0.0,5.0,95,0.00,,,0.18,0.0,meteohub,2015-03-01 04:21:00,
2015-02-28 20:26:00,33.3,32.0,29.93,NNW,333,0.0,5.0,95,0.00,,,0.18,0.0,meteohub,2015-03-01 04:26:00,
2015-02-28 20:31:00,33.3,32.0,29.93,NNW,333,0.0,5.0,95,0.00,,,0.18,0.0,meteohub,2015-03-01 04:31:00,
2015-02-28 20:36:00,33.3,32.0,29.93,NNW,333,0.0,0.0,95,0.00,,,0.18,0.0,meteohub,2015-03-01 04:36:00,
2015-02-28 20:41:00,33.3,32.0,29.93,NNW,333,0.0,0.0,95,0.00,,,0.18,0.0,meteohub,2015-03-01 04:41:00,
2015-02-28 20:46:00,33.3,32.0,29.93,NNW,333,0.0,3.0,95,0.00,,,0.18,0.0,meteohub,2015-03-01 04:46:00,
2015-02-28 20:51:00,33.4,32.2,29.94,NNW,333,0.0,3.0,95,0.00,,,0.18,0.0,meteohub,2015-03-01 04:51:00,
2015-02-28 20:56:00,33.4,32.2,29.94,NNW,333,0.0,3.0,95,0.00,,,0.18,0.0,meteohub,2015-03-01 04:56:00,
2015-02-28 21:01:00,33.4,32.2,29.94,NNW,333,0.0,0.0,95,0.00,,,0.18,0.0,meteohub,2015-03-01 05:01:00,
2015-02-28 21:06:00,33.4,32.2,29.94,NNW,333,0.0,0.0,95,0.00,,,0.18,0.0,meteohub,2015-03-01 05:06:00,